sensor_id;sensor_type;location;lat;lon;timestamp;pressure;altitude;pressure_sealevel;temperature;humidity
3832;BME280;12460;42.662;23.288;2023-05-22T00:09:20;94282.97;;;15.65;61.85
3832;BME280;12460;42.662;23.288;2023-05-22T00:24:25;94303.72;;;15.47;62.03
3832;BME280;12460;42.662;23.288;2023-05-22T00:39:30;94286.00;;;15.58;61.80
3832;BME280;12460;42.662;23.288;2023-05-22T00:54:35;94303.97;;;15.83;61.28
3832;BME280;12460;42.662;23.288;2023-05-22T01:09:42;94294.09;;;15.84;61.83
3832;BME280;12460;42.662;23.288;2023-05-22T01:40:04;94284.22;;;15.85;61.57
3832;BME280;12460;42.662;23.288;2023-05-22T01:55:16;94286.53;;;15.77;61.81
3832;BME280;12460;42.662;23.288;2023-05-22T02:10:25;94286.38;;;15.64;61.97
3832;BME280;12460;42.662;23.288;2023-05-22T02:25:31;94281.91;;;15.49;61.92
3832;BME280;12460;42.662;23.288;2023-05-22T02:40:36;94275.78;;;15.31;62.52
3832;BME280;12460;42.662;23.288;2023-05-22T02:55:41;94267.09;;;15.18;62.71
3832;BME280;12460;42.662;23.288;2023-05-22T03:10:47;94279.50;;;15.13;62.56
3832;BME280;12460;42.662;23.288;2023-05-22T03:25:51;94271.75;;;15.67;61.04
3832;BME280;12460;42.662;23.288;2023-05-22T03:41:00;94275.78;;;16.66;59.70
3832;BME280;12460;42.662;23.288;2023-05-22T03:56:05;94271.28;;;17.72;56.57
3832;BME280;12460;42.662;23.288;2023-05-22T04:11:10;94273.84;;;17.42;57.58
3832;BME280;12460;42.662;23.288;2023-05-22T04:26:19;94279.78;;;18.36;55.90
3832;BME280;12460;42.662;23.288;2023-05-22T04:41:24;94293.44;;;18.64;54.67
3832;BME280;12460;42.662;23.288;2023-05-22T04:56:32;94294.22;;;20.52;51.35
3832;BME280;12460;42.662;23.288;2023-05-22T05:11:40;94286.09;;;22.28;45.98
3832;BME280;12460;42.662;23.288;2023-05-22T05:26:45;94300.34;;;24.93;41.02
3832;BME280;12460;42.662;23.288;2023-05-22T05:41:52;94298.34;;;26.62;36.88
3832;BME280;12460;42.662;23.288;2023-05-22T05:56:57;94291.44;;;28.20;34.25
3832;BME280;12460;42.662;23.288;2023-05-22T06:12:01;94305.44;;;28.36;31.53
3832;BME280;12460;42.662;23.288;2023-05-22T06:27:07;94308.22;;;25.96;34.33
3832;BME280;12460;42.662;23.288;2023-05-22T06:42:15;94297.91;;;25.87;34.86
3832;BME280;12460;42.662;23.288;2023-05-22T06:57:38;94292.78;;;26.41;33.61
3832;BME280;12460;42.662;23.288;2023-05-22T07:12:44;94295.09;;;28.65;30.12
3832;BME280;12460;42.662;23.288;2023-05-22T07:27:50;94297.72;;;23.89;35.64
3832;BME280;12460;42.662;23.288;2023-05-22T07:42:57;94290.38;;;25.22;34.45
3832;BME280;12460;42.662;23.288;2023-05-22T07:58:02;94298.59;;;24.61;34.24
3832;BME280;12460;42.662;23.288;2023-05-22T08:13:12;94288.44;;;25.31;33.42
3832;BME280;12460;42.662;23.288;2023-05-22T08:28:19;94266.09;;;26.72;31.24
3832;BME280;12460;42.662;23.288;2023-05-22T08:43:35;94296.59;;;24.89;31.77
3832;BME280;12460;42.662;23.288;2023-05-22T08:58:52;94275.34;;;27.69;28.47
3832;BME280;12460;42.662;23.288;2023-05-22T09:14:10;94276.19;;;27.05;27.62
3832;BME280;12460;42.662;23.288;2023-05-22T09:29:15;94263.69;;;25.73;27.48
3832;BME280;12460;42.662;23.288;2023-05-22T09:44:23;94262.59;;;24.12;30.57
3832;BME280;12460;42.662;23.288;2023-05-22T09:59:30;94272.31;;;22.99;34.05
3832;BME280;12460;42.662;23.288;2023-05-22T10:14:37;94284.78;;;21.96;39.21
3832;BME280;12460;42.662;23.288;2023-05-22T10:29:48;94274.16;;;22.53;38.60
3832;BME280;12460;42.662;23.288;2023-05-22T10:44:53;94329.81;;;19.75;50.27
3832;BME280;12460;42.662;23.288;2023-05-22T11:00:14;94304.63;;;18.88;56.65
3832;BME280;12460;42.662;23.288;2023-05-22T11:15:33;94290.34;;;21.08;54.37
3832;BME280;12460;42.662;23.288;2023-05-22T11:30:40;94280.69;;;22.18;51.57
3832;BME280;12460;42.662;23.288;2023-05-22T11:46:15;94314.56;;;18.34;53.47
3832;BME280;12460;42.662;23.288;2023-05-22T12:01:20;94345.00;;;17.93;57.67
3832;BME280;12460;42.662;23.288;2023-05-22T12:16:24;94346.34;;;17.78;56.76
3832;BME280;12460;42.662;23.288;2023-05-22T12:31:34;94323.97;;;17.73;56.37
3832;BME280;12460;42.662;23.288;2023-05-22T12:46:40;94301.97;;;18.51;56.65
3832;BME280;12460;42.662;23.288;2023-05-22T13:01:45;94305.44;;;19.58;53.91
3832;BME280;12460;42.662;23.288;2023-05-22T13:16:49;94288.13;;;19.54;49.51
3832;BME280;12460;42.662;23.288;2023-05-22T13:31:54;94275.81;;;19.94;51.91
3832;BME280;12460;42.662;23.288;2023-05-22T13:46:59;94245.41;;;21.43;47.78
3832;BME280;12460;42.662;23.288;2023-05-22T14:02:04;94226.53;;;21.89;42.67
3832;BME280;12460;42.662;23.288;2023-05-22T14:17:09;94222.91;;;21.36;41.90
3832;BME280;12460;42.662;23.288;2023-05-22T14:32:14;94219.22;;;21.51;42.08
3832;BME280;12460;42.662;23.288;2023-05-22T14:47:18;94239.22;;;21.00;42.85
3832;BME280;12460;42.662;23.288;2023-05-22T15:02:23;94251.91;;;20.95;42.74
3832;BME280;12460;42.662;23.288;2023-05-22T15:17:28;94264.38;;;20.55;48.40
3832;BME280;12460;42.662;23.288;2023-05-22T15:32:33;94264.50;;;19.38;51.22
3832;BME280;12460;42.662;23.288;2023-05-22T15:47:37;94283.53;;;18.65;56.43
3832;BME280;12460;42.662;23.288;2023-05-22T16:02:42;94299.09;;;18.37;59.53
3832;BME280;12460;42.662;23.288;2023-05-22T16:17:47;94268.69;;;18.14;59.00
3832;BME280;12460;42.662;23.288;2023-05-22T16:32:52;94235.88;;;18.13;57.08
3832;BME280;12460;42.662;23.288;2023-05-22T16:47:57;94245.44;;;18.06;56.61
3832;BME280;12460;42.662;23.288;2023-05-22T17:03:03;94274.88;;;17.35;57.94
3832;BME280;12460;42.662;23.288;2023-05-22T17:18:08;94289.78;;;17.11;57.10
3832;BME280;12460;42.662;23.288;2023-05-22T17:33:13;94297.63;;;16.87;57.38
3832;BME280;12460;42.662;23.288;2023-05-22T17:48:17;94331.72;;;16.52;60.12
3832;BME280;12460;42.662;23.288;2023-05-22T18:03:29;94339.31;;;16.27;60.92
3832;BME280;12460;42.662;23.288;2023-05-22T18:18:35;94352.84;;;16.17;61.50
3832;BME280;12460;42.662;23.288;2023-05-22T18:33:39;94362.13;;;16.29;61.68
3832;BME280;12460;42.662;23.288;2023-05-22T18:48:47;94427.09;;;15.38;66.33
3832;BME280;12460;42.662;23.288;2023-05-22T19:03:53;94465.25;;;15.47;67.03
3832;BME280;12460;42.662;23.288;2023-05-22T19:18:57;94461.38;;;15.42;66.80
3832;BME280;12460;42.662;23.288;2023-05-22T19:34:03;94440.44;;;15.26;66.91
3832;BME280;12460;42.662;23.288;2023-05-22T19:49:07;94403.94;;;15.20;64.89
3832;BME280;12460;42.662;23.288;2023-05-22T20:04:11;94384.31;;;15.34;63.28
3832;BME280;12460;42.662;23.288;2023-05-22T20:19:15;94413.28;;;15.02;66.65
3832;BME280;12460;42.662;23.288;2023-05-22T20:34:21;94402.66;;;15.12;67.64
3832;BME280;12460;42.662;23.288;2023-05-22T20:49:29;94400.72;;;15.35;67.14
3832;BME280;12460;42.662;23.288;2023-05-22T21:04:34;94429.34;;;15.09;69.26
3832;BME280;12460;42.662;23.288;2023-05-22T21:19:40;94423.31;;;15.24;69.43
3832;BME280;12460;42.662;23.288;2023-05-22T21:34:45;94439.09;;;15.27;69.64
3832;BME280;12460;42.662;23.288;2023-05-22T21:49:50;94434.34;;;15.20;69.88
3832;BME280;12460;42.662;23.288;2023-05-22T22:04:55;94427.41;;;15.11;69.81
3832;BME280;12460;42.662;23.288;2023-05-22T22:19:59;94442.53;;;14.95;69.34
3832;BME280;12460;42.662;23.288;2023-05-22T22:35:05;94441.69;;;14.83;69.59
3832;BME280;12460;42.662;23.288;2023-05-22T22:50:09;94442.63;;;14.76;70.03
3832;BME280;12460;42.662;23.288;2023-05-22T23:05:15;94417.53;;;14.60;69.33
3832;BME280;12460;42.662;23.288;2023-05-22T23:20:22;94403.13;;;14.47;69.64
3832;BME280;12460;42.662;23.288;2023-05-22T23:35:27;94414.31;;;14.35;69.34
3832;BME280;12460;42.662;23.288;2023-05-22T23:50:31;94421.63;;;14.19;69.40
